Delta Virtual Airport Information Service

Tampa International Airport

ICAO: KTPA Country: United States
Latitude: 27.9755 Longitude: -82.5332
Latest Arrival : NKS751 (KEWR-KTPA) Latest Departure : DAL736 (A) (KTPA-KLAX)


WX CaptureLIVE
Data provided by noaa.gov | Fetched at 04:15:41

METAR : KTPA 031006Z 03003KT 1 3/4SM BR OVC001 14/12 A3012 RMK AO2 T01390117

TAF : KTPA 030840Z 0309/0412 VRB03KT 5SM BR FEW007 BKN015 TEMPO 0309/0312 1SM BR BKN002 FM031400 VRB04KT P6SM FEW250 FM031600 28006KT P6SM FEW250 FM040200 VRB03KT P6SM FEW250


Runway Data for KTPA
Data provided by openaviationdata.com

Runway ID Mag Var Hdg Length Elevation Surface ILS Freq ILS Id ILS Slope
9 -2 93° 6992 ft 26 ft Concrete -- -- --
18L -2 183° 8323 ft 26 ft Concrete 110.3 ITPA 3
18R -2 183° 11032 ft 26 ft Concrete 108.5 IJRT 3
27 -2 273° 6992 ft 26 ft Concrete -- -- --
36L -2 11032 ft 26 ft Concrete 108.9 IAMP 3
36R -2 8323 ft 26 ft Concrete 111.95 ITWJ 0

Tampa International Airport, United States
Use only for reference purposes



Not for navigational purposes.